sensor_id;sensor_type;location;lat;lon;timestamp;P1;durP1;ratioP1;P2;durP2;ratioP2
72198;SDS011;72266;51.056;16.880;2024-03-23T00:54:59;20.50;;;9.70;;
72198;SDS011;72266;51.056;16.880;2024-03-23T00:57:31;20.20;;;9.00;;
72198;SDS011;72266;51.056;16.880;2024-03-23T01:00:04;15.60;;;6.30;;
72198;SDS011;72266;51.056;16.880;2024-03-23T01:02:43;18.60;;;8.30;;
72198;SDS011;72266;51.056;16.880;2024-03-23T01:05:15;19.70;;;9.10;;
72198;SDS011;72266;51.056;16.880;2024-03-23T01:07:47;20.40;;;9.20;;
72198;SDS011;72266;51.056;16.880;2024-03-23T01:10:19;19.40;;;9.30;;
72198;SDS011;72266;51.056;16.880;2024-03-23T01:12:52;19.40;;;9.30;;
72198;SDS011;72266;51.056;16.880;2024-03-23T01:15:25;22.20;;;9.40;;
72198;SDS011;72266;51.056;16.880;2024-03-23T01:17:57;22.80;;;9.90;;
72198;SDS011;72266;51.056;16.880;2024-03-23T01:20:31;20.60;;;8.60;;
72198;SDS011;72266;51.056;16.880;2024-03-23T01:23:05;18.70;;;8.40;;
72198;SDS011;72266;51.056;16.880;2024-03-23T01:25:39;20.20;;;9.10;;
72198;SDS011;72266;51.056;16.880;2024-03-23T01:28:13;20.40;;;9.10;;
72198;SDS011;72266;51.056;16.880;2024-03-23T01:30:48;17.20;;;7.40;;
72198;SDS011;72266;51.056;16.880;2024-03-23T01:33:22;20.30;;;8.40;;
72198;SDS011;72266;51.056;16.880;2024-03-23T01:35:58;18.40;;;8.20;;
72198;SDS011;72266;51.056;16.880;2024-03-23T01:38:32;18.90;;;8.60;;
72198;SDS011;72266;51.056;16.880;2024-03-23T01:41:07;19.10;;;8.90;;
72198;SDS011;72266;51.056;16.880;2024-03-23T01:43:42;21.10;;;9.10;;
72198;SDS011;72266;51.056;16.880;2024-03-23T01:46:17;20.60;;;8.60;;
72198;SDS011;72266;51.056;16.880;2024-03-23T01:48:51;20.20;;;9.00;;
72198;SDS011;72266;51.056;16.880;2024-03-23T01:51:25;20.70;;;8.70;;
72198;SDS011;72266;51.056;16.880;2024-03-23T01:54:09;19.50;;;8.60;;
72198;SDS011;72266;51.056;16.880;2024-03-23T01:56:53;17.40;;;7.80;;
72198;SDS011;72266;51.056;16.880;2024-03-23T01:59:30;19.90;;;9.10;;
72198;SDS011;72266;51.056;16.880;2024-03-23T02:02:06;19.40;;;8.80;;
72198;SDS011;72266;51.056;16.880;2024-03-23T02:04:45;18.30;;;8.80;;
72198;SDS011;72266;51.056;16.880;2024-03-23T02:07:19;17.60;;;8.60;;
72198;SDS011;72266;51.056;16.880;2024-03-23T02:09:54;17.80;;;8.40;;
72198;SDS011;72266;51.056;16.880;2024-03-23T02:12:32;19.40;;;8.00;;
72198;SDS011;72266;51.056;16.880;2024-03-23T02:15:08;17.00;;;8.00;;
72198;SDS011;72266;51.056;16.880;2024-03-23T02:17:42;18.20;;;7.10;;
72198;SDS011;72266;51.056;16.880;2024-03-23T02:20:16;16.80;;;7.20;;
72198;SDS011;72266;51.056;16.880;2024-03-23T02:22:53;19.00;;;8.60;;
72198;SDS011;72266;51.056;16.880;2024-03-23T02:25:26;20.10;;;8.30;;
72198;SDS011;72266;51.056;16.880;2024-03-23T02:28:01;20.20;;;8.70;;
72198;SDS011;72266;51.056;16.880;2024-03-23T02:30:35;19.00;;;8.90;;
72198;SDS011;72266;51.056;16.880;2024-03-23T02:33:08;18.60;;;9.10;;
72198;SDS011;72266;51.056;16.880;2024-03-23T02:35:43;19.90;;;8.10;;
72198;SDS011;72266;51.056;16.880;2024-03-23T02:38:20;19.20;;;9.00;;
72198;SDS011;72266;51.056;16.880;2024-03-23T02:40:54;17.70;;;7.90;;
72198;SDS011;72266;51.056;16.880;2024-03-23T02:43:32;19.10;;;8.00;;
72198;SDS011;72266;51.056;16.880;2024-03-23T02:46:07;20.00;;;9.30;;
72198;SDS011;72266;51.056;16.880;2024-03-23T02:48:40;17.80;;;8.50;;
72198;SDS011;72266;51.056;16.880;2024-03-23T02:51:14;20.20;;;9.00;;
72198;SDS011;72266;51.056;16.880;2024-03-23T02:53:48;17.30;;;7.30;;
72198;SDS011;72266;51.056;16.880;2024-03-23T02:56:21;16.80;;;7.50;;
72198;SDS011;72266;51.056;16.880;2024-03-23T02:58:57;20.60;;;8.10;;
72198;SDS011;72266;51.056;16.880;2024-03-23T03:01:30;19.60;;;8.40;;
72198;SDS011;72266;51.056;16.880;2024-03-23T03:04:04;18.20;;;8.30;;
72198;SDS011;72266;51.056;16.880;2024-03-23T03:06:38;17.00;;;7.60;;
72198;SDS011;72266;51.056;16.880;2024-03-23T03:09:12;18.20;;;8.40;;
72198;SDS011;72266;51.056;16.880;2024-03-23T03:11:47;19.70;;;8.90;;
72198;SDS011;72266;51.056;16.880;2024-03-23T03:14:20;15.50;;;7.00;;
72198;SDS011;72266;51.056;16.880;2024-03-23T03:16:56;17.80;;;7.90;;
72198;SDS011;72266;51.056;16.880;2024-03-23T03:19:35;18.20;;;8.00;;
72198;SDS011;72266;51.056;16.880;2024-03-23T03:22:08;22.70;;;9.10;;
72198;SDS011;72266;51.056;16.880;2024-03-23T03:24:42;20.40;;;9.40;;
72198;SDS011;72266;51.056;16.880;2024-03-23T03:27:17;20.90;;;9.50;;
72198;SDS011;72266;51.056;16.880;2024-03-23T03:29:52;20.40;;;8.80;;
72198;SDS011;72266;51.056;16.880;2024-03-23T03:32:26;20.20;;;9.00;;
72198;SDS011;72266;51.056;16.880;2024-03-23T03:35:00;20.50;;;10.50;;
72198;SDS011;72266;51.056;16.880;2024-03-23T03:37:35;21.60;;;9.60;;
72198;SDS011;72266;51.056;16.880;2024-03-23T03:40:09;21.50;;;10.30;;
72198;SDS011;72266;51.056;16.880;2024-03-23T03:42:46;21.40;;;9.50;;
72198;SDS011;72266;51.056;16.880;2024-03-23T03:45:20;18.20;;;8.50;;
72198;SDS011;72266;51.056;16.880;2024-03-23T03:47:54;21.00;;;9.70;;
72198;SDS011;72266;51.056;16.880;2024-03-23T03:50:27;22.60;;;9.00;;
72198;SDS011;72266;51.056;16.880;2024-03-23T03:53:02;19.50;;;9.10;;
72198;SDS011;72266;51.056;16.880;2024-03-23T03:55:36;19.30;;;8.80;;
72198;SDS011;72266;51.056;16.880;2024-03-23T03:58:08;20.30;;;9.90;;
72198;SDS011;72266;51.056;16.880;2024-03-23T04:00:40;20.30;;;9.30;;
72198;SDS011;72266;51.056;16.880;2024-03-23T04:03:15;19.30;;;8.90;;
72198;SDS011;72266;51.056;16.880;2024-03-23T04:05:51;20.10;;;9.60;;
72198;SDS011;72266;51.056;16.880;2024-03-23T04:08:23;20.60;;;9.80;;
72198;SDS011;72266;51.056;16.880;2024-03-23T04:10:55;28.70;;;12.70;;
72198;SDS011;72266;51.056;16.880;2024-03-23T04:13:27;35.10;;;15.20;;
72198;SDS011;72266;51.056;16.880;2024-03-23T04:16:00;40.20;;;19.30;;
72198;SDS011;72266;51.056;16.880;2024-03-23T04:18:32;35.90;;;16.40;;
72198;SDS011;72266;51.056;16.880;2024-03-23T04:21:05;25.60;;;12.30;;
72198;SDS011;72266;51.056;16.880;2024-03-23T04:23:37;22.30;;;10.30;;
72198;SDS011;72266;51.056;16.880;2024-03-23T04:26:09;21.10;;;9.60;;
72198;SDS011;72266;51.056;16.880;2024-03-23T04:28:41;20.80;;;9.90;;
72198;SDS011;72266;51.056;16.880;2024-03-23T04:31:14;20.90;;;9.90;;
72198;SDS011;72266;51.056;16.880;2024-03-23T04:33:46;22.00;;;10.80;;
72198;SDS011;72266;51.056;16.880;2024-03-23T04:36:19;24.30;;;12.60;;
72198;SDS011;72266;51.056;16.880;2024-03-23T04:38:51;24.10;;;12.10;;
72198;SDS011;72266;51.056;16.880;2024-03-23T04:41:23;22.10;;;10.50;;
72198;SDS011;72266;51.056;16.880;2024-03-23T04:43:56;20.00;;;9.70;;
72198;SDS011;72266;51.056;16.880;2024-03-23T04:46:28;21.10;;;9.40;;
72198;SDS011;72266;51.056;16.880;2024-03-23T04:49:01;21.10;;;10.10;;
72198;SDS011;72266;51.056;16.880;2024-03-23T04:51:36;22.60;;;9.00;;
72198;SDS011;72266;51.056;16.880;2024-03-23T04:54:09;19.20;;;9.40;;
72198;SDS011;72266;51.056;16.880;2024-03-23T04:56:41;21.30;;;9.20;;
72198;SDS011;72266;51.056;16.880;2024-03-23T04:59:14;19.90;;;8.90;;
72198;SDS011;72266;51.056;16.880;2024-03-23T05:01:46;19.30;;;10.10;;
72198;SDS011;72266;51.056;16.880;2024-03-23T05:04:19;21.30;;;10.30;;
72198;SDS011;72266;51.056;16.880;2024-03-23T05:06:51;20.40;;;10.10;;
72198;SDS011;72266;51.056;16.880;2024-03-23T05:09:24;20.00;;;9.70;;
72198;SDS011;72266;51.056;16.880;2024-03-23T05:11:59;21.50;;;9.40;;
72198;SDS011;72266;51.056;16.880;2024-03-23T05:14:32;21.60;;;9.80;;
72198;SDS011;72266;51.056;16.880;2024-03-23T05:17:04;21.40;;;9.20;;
72198;SDS011;72266;51.056;16.880;2024-03-23T05:19:37;18.30;;;9.10;;
72198;SDS011;72266;51.056;16.880;2024-03-23T05:22:10;19.40;;;9.80;;
72198;SDS011;72266;51.056;16.880;2024-03-23T05:24:44;20.30;;;9.90;;
72198;SDS011;72266;51.056;16.880;2024-03-23T05:27:17;20.90;;;10.30;;
72198;SDS011;72266;51.056;16.880;2024-03-23T05:29:49;21.80;;;9.50;;
72198;SDS011;72266;51.056;16.880;2024-03-23T05:32:22;19.20;;;9.20;;
72198;SDS011;72266;51.056;16.880;2024-03-23T05:34:55;17.50;;;9.20;;
72198;SDS011;72266;51.056;16.880;2024-03-23T05:37:27;19.00;;;9.60;;
72198;SDS011;72266;51.056;16.880;2024-03-23T05:40:00;21.80;;;10.10;;
72198;SDS011;72266;51.056;16.880;2024-03-23T05:42:33;17.80;;;9.00;;
72198;SDS011;72266;51.056;16.880;2024-03-23T05:45:06;21.40;;;9.70;;
72198;SDS011;72266;51.056;16.880;2024-03-23T05:47:39;18.60;;;9.00;;
72198;SDS011;72266;51.056;16.880;2024-03-23T05:50:11;19.20;;;9.10;;
72198;SDS011;72266;51.056;16.880;2024-03-23T05:52:43;19.10;;;9.30;;
72198;SDS011;72266;51.056;16.880;2024-03-23T05:55:16;19.30;;;9.00;;
72198;SDS011;72266;51.056;16.880;2024-03-23T05:57:48;20.00;;;9.60;;
72198;SDS011;72266;51.056;16.880;2024-03-23T06:00:20;20.90;;;9.70;;
72198;SDS011;72266;51.056;16.880;2024-03-23T06:02:53;18.70;;;9.50;;
72198;SDS011;72266;51.056;16.880;2024-03-23T06:05:25;19.30;;;9.90;;
72198;SDS011;72266;51.056;16.880;2024-03-23T06:07:58;19.70;;;9.80;;
72198;SDS011;72266;51.056;16.880;2024-03-23T06:10:30;20.90;;;9.20;;
72198;SDS011;72266;51.056;16.880;2024-03-23T06:13:03;19.70;;;8.80;;
72198;SDS011;72266;51.056;16.880;2024-03-23T06:15:35;19.70;;;9.50;;
72198;SDS011;72266;51.056;16.880;2024-03-23T06:18:08;20.70;;;9.80;;
72198;SDS011;72266;51.056;16.880;2024-03-23T06:20:41;19.80;;;9.50;;
72198;SDS011;72266;51.056;16.880;2024-03-23T06:23:13;19.30;;;9.40;;
72198;SDS011;72266;51.056;16.880;2024-03-23T06:25:46;18.10;;;8.70;;
72198;SDS011;72266;51.056;16.880;2024-03-23T06:28:19;20.80;;;8.90;;
72198;SDS011;72266;51.056;16.880;2024-03-23T06:30:51;19.50;;;9.00;;
72198;SDS011;72266;51.056;16.880;2024-03-23T06:33:24;17.20;;;8.40;;
72198;SDS011;72266;51.056;16.880;2024-03-23T06:35:56;17.70;;;9.50;;
72198;SDS011;72266;51.056;16.880;2024-03-23T06:38:28;18.50;;;8.80;;
72198;SDS011;72266;51.056;16.880;2024-03-23T06:41:00;20.60;;;10.30;;
72198;SDS011;72266;51.056;16.880;2024-03-23T06:43:34;20.20;;;10.80;;
72198;SDS011;72266;51.056;16.880;2024-03-23T06:46:07;22.60;;;10.80;;
72198;SDS011;72266;51.056;16.880;2024-03-23T06:48:39;23.30;;;11.10;;
72198;SDS011;72266;51.056;16.880;2024-03-23T06:51:13;23.20;;;10.70;;
72198;SDS011;72266;51.056;16.880;2024-03-23T06:53:46;20.00;;;10.10;;
72198;SDS011;72266;51.056;16.880;2024-03-23T06:56:19;21.60;;;11.00;;
72198;SDS011;72266;51.056;16.880;2024-03-23T06:58:51;18.90;;;9.50;;
72198;SDS011;72266;51.056;16.880;2024-03-23T07:01:26;19.80;;;9.00;;
72198;SDS011;72266;51.056;16.880;2024-03-23T07:03:59;20.70;;;10.40;;
72198;SDS011;72266;51.056;16.880;2024-03-23T07:06:32;19.30;;;10.30;;
72198;SDS011;72266;51.056;16.880;2024-03-23T07:09:05;14.50;;;6.60;;
72198;SDS011;72266;51.056;16.880;2024-03-23T07:11:37;19.70;;;9.10;;
72198;SDS011;72266;51.056;16.880;2024-03-23T07:14:10;22.00;;;10.40;;
72198;SDS011;72266;51.056;16.880;2024-03-23T07:16:45;21.00;;;10.10;;
72198;SDS011;72266;51.056;16.880;2024-03-23T07:19:19;19.40;;;9.40;;
72198;SDS011;72266;51.056;16.880;2024-03-23T07:21:52;19.80;;;10.10;;
72198;SDS011;72266;51.056;16.880;2024-03-23T07:24:25;21.80;;;10.60;;
72198;SDS011;72266;51.056;16.880;2024-03-23T07:26:57;18.30;;;9.20;;
72198;SDS011;72266;51.056;16.880;2024-03-23T07:29:32;18.90;;;9.10;;
72198;SDS011;72266;51.056;16.880;2024-03-23T07:32:05;20.90;;;10.50;;
72198;SDS011;72266;51.056;16.880;2024-03-23T07:34:37;19.20;;;10.00;;
72198;SDS011;72266;51.056;16.880;2024-03-23T07:37:11;18.10;;;9.70;;
72198;SDS011;72266;51.056;16.880;2024-03-23T07:39:43;19.50;;;9.90;;
72198;SDS011;72266;51.056;16.880;2024-03-23T07:42:16;21.50;;;10.30;;
72198;SDS011;72266;51.056;16.880;2024-03-23T07:44:48;19.60;;;10.30;;
72198;SDS011;72266;51.056;16.880;2024-03-23T07:47:21;20.80;;;11.10;;
72198;SDS011;72266;51.056;16.880;2024-03-23T07:49:54;21.50;;;11.30;;
72198;SDS011;72266;51.056;16.880;2024-03-23T07:52:29;22.00;;;10.60;;
72198;SDS011;72266;51.056;16.880;2024-03-23T07:55:01;20.30;;;9.50;;
72198;SDS011;72266;51.056;16.880;2024-03-23T07:57:35;19.30;;;16.10;;
72198;SDS011;72266;51.056;16.880;2024-03-23T08:00:12;18.10;;;8.90;;
72198;SDS011;72266;51.056;16.880;2024-03-23T08:02:45;15.80;;;8.10;;
72198;SDS011;72266;51.056;16.880;2024-03-23T08:05:19;16.60;;;8.70;;
72198;SDS011;72266;51.056;16.880;2024-03-23T08:07:53;17.30;;;8.90;;
72198;SDS011;72266;51.056;16.880;2024-03-23T08:10:25;18.80;;;9.20;;
72198;SDS011;72266;51.056;16.880;2024-03-23T08:12:58;17.10;;;8.90;;
72198;SDS011;72266;51.056;16.880;2024-03-23T08:15:31;19.20;;;9.80;;
72198;SDS011;72266;51.056;16.880;2024-03-23T08:18:05;18.30;;;8.70;;
72198;SDS011;72266;51.056;16.880;2024-03-23T08:20:39;19.10;;;9.50;;
72198;SDS011;72266;51.056;16.880;2024-03-23T08:23:12;15.10;;;8.00;;
72198;SDS011;72266;51.056;16.880;2024-03-23T08:25:45;20.20;;;8.90;;
72198;SDS011;72266;51.056;16.880;2024-03-23T08:28:18;15.70;;;8.50;;
72198;SDS011;72266;51.056;16.880;2024-03-23T08:30:51;16.00;;;8.30;;
72198;SDS011;72266;51.056;16.880;2024-03-23T08:33:24;16.10;;;8.80;;
72198;SDS011;72266;51.056;16.880;2024-03-23T08:36:00;16.50;;;8.30;;
72198;SDS011;72266;51.056;16.880;2024-03-23T08:38:34;15.80;;;8.10;;
72198;SDS011;72266;51.056;16.880;2024-03-23T08:41:08;20.40;;;8.90;;
72198;SDS011;72266;51.056;16.880;2024-03-23T08:43:44;18.80;;;8.10;;
72198;SDS011;72266;51.056;16.880;2024-03-23T08:46:17;15.80;;;8.00;;
72198;SDS011;72266;51.056;16.880;2024-03-23T08:48:49;16.00;;;8.60;;
72198;SDS011;72266;51.056;16.880;2024-03-23T08:51:22;17.60;;;8.80;;
72198;SDS011;72266;51.056;16.880;2024-03-23T08:53:55;15.60;;;7.00;;
72198;SDS011;72266;51.056;16.880;2024-03-23T08:56:27;15.80;;;7.90;;
72198;SDS011;72266;51.056;16.880;2024-03-23T08:59:00;16.50;;;7.80;;
72198;SDS011;72266;51.056;16.880;2024-03-23T09:01:32;15.30;;;7.20;;
72198;SDS011;72266;51.056;16.880;2024-03-23T09:04:05;16.80;;;8.70;;
72198;SDS011;72266;51.056;16.880;2024-03-23T09:06:37;13.80;;;6.60;;
72198;SDS011;72266;51.056;16.880;2024-03-23T09:09:10;15.40;;;7.90;;
72198;SDS011;72266;51.056;16.880;2024-03-23T09:11:43;15.50;;;8.20;;
72198;SDS011;72266;51.056;16.880;2024-03-23T09:14:15;14.60;;;7.20;;
72198;SDS011;72266;51.056;16.880;2024-03-23T09:16:49;17.40;;;8.50;;
72198;SDS011;72266;51.056;16.880;2024-03-23T09:19:21;15.90;;;8.40;;
72198;SDS011;72266;51.056;16.880;2024-03-23T09:21:54;16.80;;;8.40;;
72198;SDS011;72266;51.056;16.880;2024-03-23T09:24:27;15.30;;;8.40;;
72198;SDS011;72266;51.056;16.880;2024-03-23T09:27:02;17.50;;;8.40;;
72198;SDS011;72266;51.056;16.880;2024-03-23T09:29:35;14.50;;;8.00;;
72198;SDS011;72266;51.056;16.880;2024-03-23T09:32:08;14.80;;;7.40;;
72198;SDS011;72266;51.056;16.880;2024-03-23T09:34:41;15.00;;;7.50;;
72198;SDS011;72266;51.056;16.880;2024-03-23T09:37:14;14.20;;;7.50;;
72198;SDS011;72266;51.056;16.880;2024-03-23T09:39:47;14.20;;;7.60;;
72198;SDS011;72266;51.056;16.880;2024-03-23T09:42:19;13.60;;;7.00;;
72198;SDS011;72266;51.056;16.880;2024-03-23T09:44:52;15.10;;;7.60;;
72198;SDS011;72266;51.056;16.880;2024-03-23T09:47:25;14.60;;;7.10;;
72198;SDS011;72266;51.056;16.880;2024-03-23T09:50:00;14.20;;;6.60;;
72198;SDS011;72266;51.056;16.880;2024-03-23T09:52:36;14.80;;;7.20;;
72198;SDS011;72266;51.056;16.880;2024-03-23T09:55:09;14.20;;;7.00;;
72198;SDS011;72266;51.056;16.880;2024-03-23T09:57:42;13.50;;;5.90;;
72198;SDS011;72266;51.056;16.880;2024-03-23T10:00:15;15.40;;;7.00;;
72198;SDS011;72266;51.056;16.880;2024-03-23T10:02:49;14.70;;;7.90;;
72198;SDS011;72266;51.056;16.880;2024-03-23T10:05:23;14.30;;;7.90;;
72198;SDS011;72266;51.056;16.880;2024-03-23T10:08:18;15.20;;;7.30;;
72198;SDS011;72266;51.056;16.880;2024-03-23T10:10:51;12.60;;;7.10;;
72198;SDS011;72266;51.056;16.880;2024-03-23T10:13:26;12.90;;;6.90;;
72198;SDS011;72266;51.056;16.880;2024-03-23T10:16:00;14.30;;;6.60;;
72198;SDS011;72266;51.056;16.880;2024-03-23T10:18:32;13.60;;;7.30;;
72198;SDS011;72266;51.056;16.880;2024-03-23T10:21:09;12.60;;;6.90;;
72198;SDS011;72266;51.056;16.880;2024-03-23T10:23:43;12.60;;;7.00;;
72198;SDS011;72266;51.056;16.880;2024-03-23T10:26:20;12.30;;;6.70;;
72198;SDS011;72266;51.056;16.880;2024-03-23T10:28:56;13.40;;;6.90;;
72198;SDS011;72266;51.056;16.880;2024-03-23T10:31:30;12.20;;;6.90;;
72198;SDS011;72266;51.056;16.880;2024-03-23T10:34:05;13.50;;;7.70;;
72198;SDS011;72266;51.056;16.880;2024-03-23T10:36:38;13.20;;;6.80;;
72198;SDS011;72266;51.056;16.880;2024-03-23T10:39:13;15.50;;;7.30;;
72198;SDS011;72266;51.056;16.880;2024-03-23T10:41:46;22.10;;;10.50;;
72198;SDS011;72266;51.056;16.880;2024-03-23T10:44:21;18.60;;;9.20;;
72198;SDS011;72266;51.056;16.880;2024-03-23T10:46:58;19.40;;;8.50;;
72198;SDS011;72266;51.056;16.880;2024-03-23T10:49:34;18.10;;;9.50;;
72198;SDS011;72266;51.056;16.880;2024-03-23T10:52:08;14.00;;;7.00;;
72198;SDS011;72266;51.056;16.880;2024-03-23T10:54:40;16.90;;;7.90;;
72198;SDS011;72266;51.056;16.880;2024-03-23T10:57:14;15.70;;;7.40;;
72198;SDS011;72266;51.056;16.880;2024-03-23T10:59:50;16.40;;;8.30;;
72198;SDS011;72266;51.056;16.880;2024-03-23T11:02:24;13.00;;;6.10;;
72198;SDS011;72266;51.056;16.880;2024-03-23T11:04:59;12.60;;;6.50;;
72198;SDS011;72266;51.056;16.880;2024-03-23T11:07:32;12.50;;;6.70;;
72198;SDS011;72266;51.056;16.880;2024-03-23T11:10:24;13.00;;;6.70;;
72198;SDS011;72266;51.056;16.880;2024-03-23T11:12:59;11.70;;;6.20;;
72198;SDS011;72266;51.056;16.880;2024-03-23T11:15:54;12.70;;;5.70;;
72198;SDS011;72266;51.056;16.880;2024-03-23T11:18:28;12.30;;;5.50;;
72198;SDS011;72266;51.056;16.880;2024-03-23T11:21:01;12.60;;;5.20;;
72198;SDS011;72266;51.056;16.880;2024-03-23T11:23:35;10.40;;;5.10;;
72198;SDS011;72266;51.056;16.880;2024-03-23T11:26:08;11.80;;;5.40;;
72198;SDS011;72266;51.056;16.880;2024-03-23T11:28:41;13.90;;;5.30;;
72198;SDS011;72266;51.056;16.880;2024-03-23T11:31:13;11.00;;;5.70;;
72198;SDS011;72266;51.056;16.880;2024-03-23T11:33:46;12.30;;;6.20;;
72198;SDS011;72266;51.056;16.880;2024-03-23T11:36:20;11.50;;;5.70;;
72198;SDS011;72266;51.056;16.880;2024-03-23T11:38:52;10.50;;;5.60;;
72198;SDS011;72266;51.056;16.880;2024-03-23T11:41:25;11.70;;;5.60;;
72198;SDS011;72266;51.056;16.880;2024-03-23T11:43:57;10.70;;;4.90;;
72198;SDS011;72266;51.056;16.880;2024-03-23T11:46:30;10.50;;;4.80;;
72198;SDS011;72266;51.056;16.880;2024-03-23T11:49:04;11.40;;;5.20;;
72198;SDS011;72266;51.056;16.880;2024-03-23T11:51:36;10.70;;;5.20;;
72198;SDS011;72266;51.056;16.880;2024-03-23T11:54:09;10.10;;;4.80;;
72198;SDS011;72266;51.056;16.880;2024-03-23T11:56:42;11.90;;;5.40;;
72198;SDS011;72266;51.056;16.880;2024-03-23T11:59:33;9.80;;;5.10;;
72198;SDS011;72266;51.056;16.880;2024-03-23T12:02:10;13.80;;;4.20;;
72198;SDS011;72266;51.056;16.880;2024-03-23T12:04:44;9.60;;;4.30;;
72198;SDS011;72266;51.056;16.880;2024-03-23T12:07:17;8.80;;;3.70;;
72198;SDS011;72266;51.056;16.880;2024-03-23T12:10:03;9.80;;;3.70;;
72198;SDS011;72266;51.056;16.880;2024-03-23T12:12:37;9.00;;;3.50;;
72198;SDS011;72266;51.056;16.880;2024-03-23T12:15:10;9.30;;;4.40;;
72198;SDS011;72266;51.056;16.880;2024-03-23T12:17:42;10.80;;;4.50;;
72198;SDS011;72266;51.056;16.880;2024-03-23T12:20:15;9.90;;;4.20;;
72198;SDS011;72266;51.056;16.880;2024-03-23T12:22:48;8.50;;;3.50;;
72198;SDS011;72266;51.056;16.880;2024-03-23T12:25:21;9.20;;;3.40;;
72198;SDS011;72266;51.056;16.880;2024-03-23T12:27:54;7.60;;;3.10;;
72198;SDS011;72266;51.056;16.880;2024-03-23T12:30:26;7.80;;;2.40;;
72198;SDS011;72266;51.056;16.880;2024-03-23T12:33:01;7.10;;;2.60;;
72198;SDS011;72266;51.056;16.880;2024-03-23T12:35:34;8.90;;;2.60;;
72198;SDS011;72266;51.056;16.880;2024-03-23T12:38:06;7.50;;;2.60;;
72198;SDS011;72266;51.056;16.880;2024-03-23T12:40:38;9.50;;;3.50;;
72198;SDS011;72266;51.056;16.880;2024-03-23T12:43:11;8.00;;;3.60;;
72198;SDS011;72266;51.056;16.880;2024-03-23T12:45:47;8.50;;;3.90;;
72198;SDS011;72266;51.056;16.880;2024-03-23T12:48:19;8.40;;;3.20;;
72198;SDS011;72266;51.056;16.880;2024-03-23T12:50:55;8.00;;;3.10;;
72198;SDS011;72266;51.056;16.880;2024-03-23T12:53:28;7.20;;;2.90;;
72198;SDS011;72266;51.056;16.880;2024-03-23T12:56:03;8.70;;;3.30;;
72198;SDS011;72266;51.056;16.880;2024-03-23T12:58:36;8.20;;;3.50;;
72198;SDS011;72266;51.056;16.880;2024-03-23T13:01:10;11.20;;;3.80;;
72198;SDS011;72266;51.056;16.880;2024-03-23T13:03:44;7.90;;;2.20;;
72198;SDS011;72266;51.056;16.880;2024-03-23T13:06:18;8.10;;;2.70;;
72198;SDS011;72266;51.056;16.880;2024-03-23T13:08:51;8.20;;;2.50;;
72198;SDS011;72266;51.056;16.880;2024-03-23T13:11:24;7.40;;;2.90;;
72198;SDS011;72266;51.056;16.880;2024-03-23T13:13:57;8.90;;;3.20;;
72198;SDS011;72266;51.056;16.880;2024-03-23T13:16:29;9.00;;;3.30;;
72198;SDS011;72266;51.056;16.880;2024-03-23T13:19:02;8.20;;;3.50;;
72198;SDS011;72266;51.056;16.880;2024-03-23T13:21:35;10.80;;;4.40;;
72198;SDS011;72266;51.056;16.880;2024-03-23T13:24:09;11.00;;;4.10;;
72198;SDS011;72266;51.056;16.880;2024-03-23T13:26:42;8.40;;;3.20;;
72198;SDS011;72266;51.056;16.880;2024-03-23T13:29:15;10.70;;;3.20;;
72198;SDS011;72266;51.056;16.880;2024-03-23T13:31:49;10.10;;;3.00;;
72198;SDS011;72266;51.056;16.880;2024-03-23T13:34:23;8.20;;;2.60;;
72198;SDS011;72266;51.056;16.880;2024-03-23T13:36:58;7.30;;;2.20;;
72198;SDS011;72266;51.056;16.880;2024-03-23T13:39:31;8.20;;;2.70;;
72198;SDS011;72266;51.056;16.880;2024-03-23T13:42:04;7.20;;;1.90;;
72198;SDS011;72266;51.056;16.880;2024-03-23T13:44:39;6.60;;;2.10;;
72198;SDS011;72266;51.056;16.880;2024-03-23T13:47:15;7.30;;;2.20;;
72198;SDS011;72266;51.056;16.880;2024-03-23T13:49:48;6.00;;;1.80;;
72198;SDS011;72266;51.056;16.880;2024-03-23T13:52:21;6.40;;;1.90;;
72198;SDS011;72266;51.056;16.880;2024-03-23T13:54:57;8.50;;;2.40;;
72198;SDS011;72266;51.056;16.880;2024-03-23T13:57:30;7.50;;;2.20;;
72198;SDS011;72266;51.056;16.880;2024-03-23T14:00:04;5.00;;;1.40;;
72198;SDS011;72266;51.056;16.880;2024-03-23T14:02:41;6.70;;;1.50;;
72198;SDS011;72266;51.056;16.880;2024-03-23T14:05:13;5.10;;;1.40;;
72198;SDS011;72266;51.056;16.880;2024-03-23T14:07:46;3.60;;;1.10;;
72198;SDS011;72266;51.056;16.880;2024-03-23T14:10:20;3.80;;;0.90;;
72198;SDS011;72266;51.056;16.880;2024-03-23T14:12:54;3.50;;;1.00;;
72198;SDS011;72266;51.056;16.880;2024-03-23T14:15:27;3.80;;;1.00;;
72198;SDS011;72266;51.056;16.880;2024-03-23T14:18:00;3.60;;;1.00;;
72198;SDS011;72266;51.056;16.880;2024-03-23T14:20:35;3.80;;;1.00;;
72198;SDS011;72266;51.056;16.880;2024-03-23T14:23:18;6.50;;;0.80;;
72198;SDS011;72266;51.056;16.880;2024-03-23T14:25:56;2.40;;;0.70;;
72198;SDS011;72266;51.056;16.880;2024-03-23T14:28:29;2.70;;;0.90;;
72198;SDS011;72266;51.056;16.880;2024-03-23T14:31:02;3.00;;;0.80;;
72198;SDS011;72266;51.056;16.880;2024-03-23T14:33:40;2.50;;;0.80;;
72198;SDS011;72266;51.056;16.880;2024-03-23T14:36:16;4.80;;;0.90;;
72198;SDS011;72266;51.056;16.880;2024-03-23T14:38:50;3.70;;;0.70;;
72198;SDS011;72266;51.056;16.880;2024-03-23T14:41:23;4.20;;;1.00;;
72198;SDS011;72266;51.056;16.880;2024-03-23T14:43:56;3.30;;;1.00;;
72198;SDS011;72266;51.056;16.880;2024-03-23T14:46:30;2.50;;;0.90;;
72198;SDS011;72266;51.056;16.880;2024-03-23T14:49:03;4.40;;;1.10;;
72198;SDS011;72266;51.056;16.880;2024-03-23T14:51:37;4.10;;;1.30;;
72198;SDS011;72266;51.056;16.880;2024-03-23T14:54:10;4.50;;;1.40;;
72198;SDS011;72266;51.056;16.880;2024-03-23T14:56:46;5.30;;;1.70;;
72198;SDS011;72266;51.056;16.880;2024-03-23T14:59:19;5.10;;;1.50;;
72198;SDS011;72266;51.056;16.880;2024-03-23T15:01:52;4.80;;;1.60;;
72198;SDS011;72266;51.056;16.880;2024-03-23T15:04:26;28.90;;;11.30;;
72198;SDS011;72266;51.056;16.880;2024-03-23T15:06:58;27.50;;;12.70;;
72198;SDS011;72266;51.056;16.880;2024-03-23T15:09:35;6.70;;;2.40;;
72198;SDS011;72266;51.056;16.880;2024-03-23T15:12:11;9.20;;;3.00;;
72198;SDS011;72266;51.056;16.880;2024-03-23T15:14:44;10.90;;;4.00;;
72198;SDS011;72266;51.056;16.880;2024-03-23T15:17:17;9.00;;;2.30;;
72198;SDS011;72266;51.056;16.880;2024-03-23T15:19:50;8.10;;;2.70;;
72198;SDS011;72266;51.056;16.880;2024-03-23T15:22:23;6.70;;;1.50;;
72198;SDS011;72266;51.056;16.880;2024-03-23T15:24:56;5.90;;;2.10;;
72198;SDS011;72266;51.056;16.880;2024-03-23T15:27:30;8.20;;;2.30;;
72198;SDS011;72266;51.056;16.880;2024-03-23T15:30:05;7.90;;;1.70;;
72198;SDS011;72266;51.056;16.880;2024-03-23T15:32:39;5.90;;;2.30;;
72198;SDS011;72266;51.056;16.880;2024-03-23T15:35:12;6.10;;;1.80;;
72198;SDS011;72266;51.056;16.880;2024-03-23T15:37:47;6.00;;;1.70;;
72198;SDS011;72266;51.056;16.880;2024-03-23T15:40:28;4.80;;;1.40;;
72198;SDS011;72266;51.056;16.880;2024-03-23T15:43:06;4.50;;;1.30;;
72198;SDS011;72266;51.056;16.880;2024-03-23T15:45:54;4.30;;;1.30;;
72198;SDS011;72266;51.056;16.880;2024-03-23T15:48:36;4.10;;;1.20;;
72198;SDS011;72266;51.056;16.880;2024-03-23T15:51:10;4.50;;;1.50;;
72198;SDS011;72266;51.056;16.880;2024-03-23T15:53:48;4.50;;;1.40;;
72198;SDS011;72266;51.056;16.880;2024-03-23T15:56:34;3.40;;;1.10;;